sensor_id;sensor_type;location;lat;lon;timestamp;temperature;humidity
44487;DHT22;30191;50.908;6.962;2024-03-29T00:00:42;11.20;99.90
44487;DHT22;30191;50.908;6.962;2024-03-29T00:03:10;11.20;99.90
44487;DHT22;30191;50.908;6.962;2024-03-29T00:05:36;11.30;99.90
44487;DHT22;30191;50.908;6.962;2024-03-29T00:08:03;11.20;99.90
44487;DHT22;30191;50.908;6.962;2024-03-29T00:10:29;11.30;99.90
44487;DHT22;30191;50.908;6.962;2024-03-29T00:12:54;11.20;99.90
44487;DHT22;30191;50.908;6.962;2024-03-29T00:15:20;11.20;99.90
44487;DHT22;30191;50.908;6.962;2024-03-29T00:17:46;11.20;99.90
44487;DHT22;30191;50.908;6.962;2024-03-29T00:20:12;11.10;99.90
44487;DHT22;30191;50.908;6.962;2024-03-29T00:22:38;11.10;99.90
44487;DHT22;30191;50.908;6.962;2024-03-29T00:25:04;11.10;99.90
44487;DHT22;30191;50.908;6.962;2024-03-29T00:27:29;11.10;99.90
44487;DHT22;30191;50.908;6.962;2024-03-29T00:29:56;11.10;99.90
44487;DHT22;30191;50.908;6.962;2024-03-29T00:32:22;11.10;99.90
44487;DHT22;30191;50.908;6.962;2024-03-29T00:34:52;11.10;99.90
44487;DHT22;30191;50.908;6.962;2024-03-29T00:37:18;11.10;99.90
44487;DHT22;30191;50.908;6.962;2024-03-29T00:39:44;11.10;99.90
44487;DHT22;30191;50.908;6.962;2024-03-29T00:42:10;11.10;99.90
44487;DHT22;30191;50.908;6.962;2024-03-29T00:44:41;11.10;99.90
44487;DHT22;30191;50.908;6.962;2024-03-29T00:47:06;11.10;99.90
44487;DHT22;30191;50.908;6.962;2024-03-29T00:49:32;11.10;99.90
44487;DHT22;30191;50.908;6.962;2024-03-29T00:51:58;11.10;99.90
44487;DHT22;30191;50.908;6.962;2024-03-29T00:54:23;11.10;99.90
44487;DHT22;30191;50.908;6.962;2024-03-29T00:56:52;11.10;99.90
44487;DHT22;30191;50.908;6.962;2024-03-29T00:59:18;11.10;99.90
44487;DHT22;30191;50.908;6.962;2024-03-29T01:01:44;11.00;99.90
44487;DHT22;30191;50.908;6.962;2024-03-29T01:04:10;11.10;99.90
44487;DHT22;30191;50.908;6.962;2024-03-29T01:06:36;11.10;99.90
44487;DHT22;30191;50.908;6.962;2024-03-29T01:09:02;11.10;99.90
44487;DHT22;30191;50.908;6.962;2024-03-29T01:11:29;11.10;99.90
44487;DHT22;30191;50.908;6.962;2024-03-29T01:13:54;11.10;99.90
44487;DHT22;30191;50.908;6.962;2024-03-29T01:16:20;11.10;99.90
44487;DHT22;30191;50.908;6.962;2024-03-29T01:18:46;11.00;99.90
44487;DHT22;30191;50.908;6.962;2024-03-29T01:21:12;11.10;99.90
44487;DHT22;30191;50.908;6.962;2024-03-29T01:23:38;11.10;99.90
44487;DHT22;30191;50.908;6.962;2024-03-29T01:26:05;11.10;99.90
44487;DHT22;30191;50.908;6.962;2024-03-29T01:28:31;11.10;99.90
44487;DHT22;30191;50.908;6.962;2024-03-29T01:30:57;11.00;99.90
44487;DHT22;30191;50.908;6.962;2024-03-29T01:33:26;11.00;99.90
44487;DHT22;30191;50.908;6.962;2024-03-29T01:35:52;11.00;99.90
44487;DHT22;30191;50.908;6.962;2024-03-29T01:38:18;11.10;99.90
44487;DHT22;30191;50.908;6.962;2024-03-29T01:40:44;11.10;99.90
44487;DHT22;30191;50.908;6.962;2024-03-29T01:43:10;11.10;99.90
44487;DHT22;30191;50.908;6.962;2024-03-29T01:45:39;11.10;99.90
44487;DHT22;30191;50.908;6.962;2024-03-29T01:48:06;11.10;99.90
44487;DHT22;30191;50.908;6.962;2024-03-29T01:50:32;11.10;99.90
44487;DHT22;30191;50.908;6.962;2024-03-29T01:52:59;11.10;99.90
44487;DHT22;30191;50.908;6.962;2024-03-29T01:55:25;11.20;99.90
44487;DHT22;30191;50.908;6.962;2024-03-29T01:57:51;11.10;99.90
44487;DHT22;30191;50.908;6.962;2024-03-29T02:00:18;11.10;99.90
44487;DHT22;30191;50.908;6.962;2024-03-29T02:02:44;11.10;99.90
44487;DHT22;30191;50.908;6.962;2024-03-29T02:05:10;11.10;99.90
44487;DHT22;30191;50.908;6.962;2024-03-29T02:07:36;11.10;99.90
44487;DHT22;30191;50.908;6.962;2024-03-29T02:10:03;11.20;99.90
44487;DHT22;30191;50.908;6.962;2024-03-29T02:12:29;11.20;99.90
44487;DHT22;30191;50.908;6.962;2024-03-29T02:14:54;11.20;99.90
44487;DHT22;30191;50.908;6.962;2024-03-29T02:17:21;11.20;99.90
44487;DHT22;30191;50.908;6.962;2024-03-29T02:19:46;11.10;99.90
44487;DHT22;30191;50.908;6.962;2024-03-29T02:22:15;11.10;99.90
44487;DHT22;30191;50.908;6.962;2024-03-29T02:24:41;11.10;99.90
44487;DHT22;30191;50.908;6.962;2024-03-29T02:27:07;11.20;99.90
44487;DHT22;30191;50.908;6.962;2024-03-29T02:29:34;11.20;99.90
44487;DHT22;30191;50.908;6.962;2024-03-29T02:32:03;11.20;99.90
44487;DHT22;30191;50.908;6.962;2024-03-29T02:34:29;11.20;99.90
44487;DHT22;30191;50.908;6.962;2024-03-29T02:36:54;11.20;99.90
44487;DHT22;30191;50.908;6.962;2024-03-29T02:39:20;11.20;99.90
44487;DHT22;30191;50.908;6.962;2024-03-29T02:41:45;11.20;99.90
44487;DHT22;30191;50.908;6.962;2024-03-29T02:44:11;11.20;99.90
44487;DHT22;30191;50.908;6.962;2024-03-29T02:46:37;11.20;99.90
44487;DHT22;30191;50.908;6.962;2024-03-29T02:49:02;11.20;99.90
44487;DHT22;30191;50.908;6.962;2024-03-29T02:51:28;11.20;99.90
44487;DHT22;30191;50.908;6.962;2024-03-29T02:53:54;11.20;99.90
44487;DHT22;30191;50.908;6.962;2024-03-29T02:56:19;11.20;99.90
44487;DHT22;30191;50.908;6.962;2024-03-29T02:58:48;11.30;99.90
44487;DHT22;30191;50.908;6.962;2024-03-29T03:01:13;11.20;99.90
44487;DHT22;30191;50.908;6.962;2024-03-29T03:03:39;11.10;99.90
44487;DHT22;30191;50.908;6.962;2024-03-29T03:06:04;11.20;99.90
44487;DHT22;30191;50.908;6.962;2024-03-29T03:08:30;11.20;99.90
44487;DHT22;30191;50.908;6.962;2024-03-29T03:11:14;11.10;99.90
44487;DHT22;30191;50.908;6.962;2024-03-29T03:13:40;11.10;99.90
44487;DHT22;30191;50.908;6.962;2024-03-29T03:16:06;11.20;99.90
44487;DHT22;30191;50.908;6.962;2024-03-29T03:18:32;11.00;99.90
44487;DHT22;30191;50.908;6.962;2024-03-29T03:20:57;11.10;99.90
44487;DHT22;30191;50.908;6.962;2024-03-29T03:23:24;11.10;99.90
44487;DHT22;30191;50.908;6.962;2024-03-29T03:26:00;11.10;99.90
44487;DHT22;30191;50.908;6.962;2024-03-29T03:28:26;11.00;99.90
44487;DHT22;30191;50.908;6.962;2024-03-29T03:30:54;11.00;99.90
44487;DHT22;30191;50.908;6.962;2024-03-29T03:33:20;11.00;99.90
44487;DHT22;30191;50.908;6.962;2024-03-29T03:35:47;11.00;99.90
44487;DHT22;30191;50.908;6.962;2024-03-29T03:38:13;11.00;99.90
44487;DHT22;30191;50.908;6.962;2024-03-29T03:40:39;11.00;99.90
44487;DHT22;30191;50.908;6.962;2024-03-29T03:43:06;11.00;99.90
44487;DHT22;30191;50.908;6.962;2024-03-29T03:45:35;11.10;99.90
44487;DHT22;30191;50.908;6.962;2024-03-29T03:48:05;11.00;99.90
44487;DHT22;30191;50.908;6.962;2024-03-29T03:50:32;11.10;99.90
44487;DHT22;30191;50.908;6.962;2024-03-29T03:52:58;11.10;99.90
44487;DHT22;30191;50.908;6.962;2024-03-29T03:55:24;11.10;99.90
44487;DHT22;30191;50.908;6.962;2024-03-29T03:57:50;11.10;99.90
44487;DHT22;30191;50.908;6.962;2024-03-29T04:00:18;11.10;99.90
44487;DHT22;30191;50.908;6.962;2024-03-29T04:02:51;11.00;99.90
44487;DHT22;30191;50.908;6.962;2024-03-29T04:05:17;11.10;99.90
44487;DHT22;30191;50.908;6.962;2024-03-29T04:07:43;11.10;99.90
44487;DHT22;30191;50.908;6.962;2024-03-29T04:10:09;11.10;99.90
44487;DHT22;30191;50.908;6.962;2024-03-29T04:12:35;11.10;99.90
44487;DHT22;30191;50.908;6.962;2024-03-29T04:15:00;11.10;99.90
44487;DHT22;30191;50.908;6.962;2024-03-29T04:17:26;11.10;99.90
44487;DHT22;30191;50.908;6.962;2024-03-29T04:19:52;11.10;99.90
44487;DHT22;30191;50.908;6.962;2024-03-29T04:22:17;11.10;99.90
44487;DHT22;30191;50.908;6.962;2024-03-29T04:24:43;11.10;99.90
44487;DHT22;30191;50.908;6.962;2024-03-29T04:27:09;10.90;99.90
44487;DHT22;30191;50.908;6.962;2024-03-29T04:29:34;10.90;99.90
44487;DHT22;30191;50.908;6.962;2024-03-29T04:32:01;11.00;99.90
44487;DHT22;30191;50.908;6.962;2024-03-29T04:34:27;11.00;99.90
44487;DHT22;30191;50.908;6.962;2024-03-29T04:36:52;11.00;99.90
44487;DHT22;30191;50.908;6.962;2024-03-29T04:39:18;11.00;99.90
44487;DHT22;30191;50.908;6.962;2024-03-29T04:41:44;11.10;99.90
44487;DHT22;30191;50.908;6.962;2024-03-29T04:44:11;11.00;99.90
44487;DHT22;30191;50.908;6.962;2024-03-29T04:46:37;10.90;99.90
44487;DHT22;30191;50.908;6.962;2024-03-29T04:49:03;11.00;99.90
44487;DHT22;30191;50.908;6.962;2024-03-29T04:51:28;11.00;99.90
44487;DHT22;30191;50.908;6.962;2024-03-29T04:53:54;11.10;99.90
44487;DHT22;30191;50.908;6.962;2024-03-29T04:56:20;11.10;99.90
44487;DHT22;30191;50.908;6.962;2024-03-29T04:58:45;11.20;99.90
44487;DHT22;30191;50.908;6.962;2024-03-29T05:01:11;11.20;99.90
44487;DHT22;30191;50.908;6.962;2024-03-29T05:03:37;11.20;99.90
44487;DHT22;30191;50.908;6.962;2024-03-29T05:06:03;11.20;99.90
44487;DHT22;30191;50.908;6.962;2024-03-29T05:08:28;11.10;99.90
44487;DHT22;30191;50.908;6.962;2024-03-29T05:10:54;11.10;99.90
44487;DHT22;30191;50.908;6.962;2024-03-29T05:13:20;11.10;99.90
44487;DHT22;30191;50.908;6.962;2024-03-29T05:15:49;11.10;99.90
44487;DHT22;30191;50.908;6.962;2024-03-29T05:18:14;11.00;99.90
44487;DHT22;30191;50.908;6.962;2024-03-29T05:20:40;10.90;99.90
44487;DHT22;30191;50.908;6.962;2024-03-29T05:23:07;10.90;99.90
44487;DHT22;30191;50.908;6.962;2024-03-29T05:25:33;10.90;99.90
44487;DHT22;30191;50.908;6.962;2024-03-29T05:27:58;11.00;99.90
44487;DHT22;30191;50.908;6.962;2024-03-29T05:30:24;10.90;99.90
44487;DHT22;30191;50.908;6.962;2024-03-29T05:32:50;10.90;99.90
44487;DHT22;30191;50.908;6.962;2024-03-29T05:35:15;11.00;99.90
44487;DHT22;30191;50.908;6.962;2024-03-29T05:37:41;11.00;99.90
44487;DHT22;30191;50.908;6.962;2024-03-29T05:40:08;11.00;99.90
44487;DHT22;30191;50.908;6.962;2024-03-29T05:42:34;11.10;99.90
44487;DHT22;30191;50.908;6.962;2024-03-29T05:45:01;11.10;99.90
44487;DHT22;30191;50.908;6.962;2024-03-29T05:47:27;11.10;99.90
44487;DHT22;30191;50.908;6.962;2024-03-29T05:49:53;11.10;99.90
44487;DHT22;30191;50.908;6.962;2024-03-29T05:52:19;11.10;99.90
44487;DHT22;30191;50.908;6.962;2024-03-29T05:54:46;11.00;99.90
44487;DHT22;30191;50.908;6.962;2024-03-29T05:57:12;10.90;99.90
44487;DHT22;30191;50.908;6.962;2024-03-29T05:59:38;11.00;99.90
44487;DHT22;30191;50.908;6.962;2024-03-29T06:02:04;11.00;99.90
44487;DHT22;30191;50.908;6.962;2024-03-29T06:04:30;11.10;99.90
44487;DHT22;30191;50.908;6.962;2024-03-29T06:07:02;11.10;99.90
44487;DHT22;30191;50.908;6.962;2024-03-29T06:09:28;11.10;99.90
44487;DHT22;30191;50.908;6.962;2024-03-29T06:11:54;11.10;99.90
44487;DHT22;30191;50.908;6.962;2024-03-29T06:14:20;11.10;99.90
44487;DHT22;30191;50.908;6.962;2024-03-29T06:17:05;11.10;99.90
44487;DHT22;30191;50.908;6.962;2024-03-29T06:19:52;11.20;99.90
44487;DHT22;30191;50.908;6.962;2024-03-29T06:22:21;11.20;99.90
44487;DHT22;30191;50.908;6.962;2024-03-29T06:24:47;11.20;99.90
44487;DHT22;30191;50.908;6.962;2024-03-29T06:27:14;11.20;99.90
44487;DHT22;30191;50.908;6.962;2024-03-29T06:29:44;11.30;99.90
44487;DHT22;30191;50.908;6.962;2024-03-29T06:32:10;11.30;99.90
44487;DHT22;30191;50.908;6.962;2024-03-29T06:34:36;11.20;99.90
44487;DHT22;30191;50.908;6.962;2024-03-29T06:37:02;11.30;99.90
44487;DHT22;30191;50.908;6.962;2024-03-29T06:39:28;11.30;99.90
44487;DHT22;30191;50.908;6.962;2024-03-29T06:41:53;11.30;99.90
44487;DHT22;30191;50.908;6.962;2024-03-29T06:44:19;11.30;99.90
44487;DHT22;30191;50.908;6.962;2024-03-29T06:46:46;11.40;99.90
44487;DHT22;30191;50.908;6.962;2024-03-29T06:49:12;11.40;99.90
44487;DHT22;30191;50.908;6.962;2024-03-29T06:51:39;11.40;99.90
44487;DHT22;30191;50.908;6.962;2024-03-29T06:54:08;11.50;99.90
44487;DHT22;30191;50.908;6.962;2024-03-29T06:56:34;11.50;99.90
44487;DHT22;30191;50.908;6.962;2024-03-29T06:59:00;11.50;99.90
44487;DHT22;30191;50.908;6.962;2024-03-29T07:01:25;11.50;99.90
44487;DHT22;30191;50.908;6.962;2024-03-29T07:03:51;11.50;99.90
44487;DHT22;30191;50.908;6.962;2024-03-29T07:06:17;11.60;99.90
44487;DHT22;30191;50.908;6.962;2024-03-29T07:08:42;11.60;99.90
44487;DHT22;30191;50.908;6.962;2024-03-29T07:11:08;11.70;99.90
44487;DHT22;30191;50.908;6.962;2024-03-29T07:13:35;11.60;99.90
44487;DHT22;30191;50.908;6.962;2024-03-29T07:16:01;11.60;99.90
44487;DHT22;30191;50.908;6.962;2024-03-29T07:18:27;11.60;99.90
44487;DHT22;30191;50.908;6.962;2024-03-29T07:20:53;11.60;99.90
44487;DHT22;30191;50.908;6.962;2024-03-29T07:23:19;11.70;99.90
44487;DHT22;30191;50.908;6.962;2024-03-29T07:25:56;11.70;99.90
44487;DHT22;30191;50.908;6.962;2024-03-29T07:28:22;11.70;99.90
44487;DHT22;30191;50.908;6.962;2024-03-29T07:30:48;11.80;99.90
44487;DHT22;30191;50.908;6.962;2024-03-29T07:33:15;11.70;99.90
44487;DHT22;30191;50.908;6.962;2024-03-29T07:35:41;11.80;99.90
44487;DHT22;30191;50.908;6.962;2024-03-29T07:38:08;11.80;99.90
44487;DHT22;30191;50.908;6.962;2024-03-29T07:40:34;11.90;99.90
44487;DHT22;30191;50.908;6.962;2024-03-29T07:43:00;11.90;99.90
44487;DHT22;30191;50.908;6.962;2024-03-29T07:45:26;11.90;99.90
44487;DHT22;30191;50.908;6.962;2024-03-29T07:47:52;11.90;99.90
44487;DHT22;30191;50.908;6.962;2024-03-29T07:50:21;12.00;99.90
44487;DHT22;30191;50.908;6.962;2024-03-29T07:52:47;12.00;99.90
44487;DHT22;30191;50.908;6.962;2024-03-29T07:55:13;12.00;99.90
44487;DHT22;30191;50.908;6.962;2024-03-29T07:57:39;12.00;99.90
44487;DHT22;30191;50.908;6.962;2024-03-29T08:00:05;12.10;99.90
44487;DHT22;30191;50.908;6.962;2024-03-29T08:02:32;12.10;99.90
44487;DHT22;30191;50.908;6.962;2024-03-29T08:04:58;12.20;99.90
44487;DHT22;30191;50.908;6.962;2024-03-29T08:07:24;12.20;99.90
44487;DHT22;30191;50.908;6.962;2024-03-29T08:09:50;12.20;99.90
44487;DHT22;30191;50.908;6.962;2024-03-29T08:12:16;12.20;99.90
44487;DHT22;30191;50.908;6.962;2024-03-29T08:14:42;12.30;99.90
44487;DHT22;30191;50.908;6.962;2024-03-29T08:17:07;12.30;99.90
44487;DHT22;30191;50.908;6.962;2024-03-29T08:19:35;12.40;99.90
44487;DHT22;30191;50.908;6.962;2024-03-29T08:22:01;12.40;99.90
44487;DHT22;30191;50.908;6.962;2024-03-29T08:24:27;12.50;99.90
44487;DHT22;30191;50.908;6.962;2024-03-29T08:26:53;12.50;99.90
44487;DHT22;30191;50.908;6.962;2024-03-29T08:29:19;12.60;99.90
44487;DHT22;30191;50.908;6.962;2024-03-29T08:31:45;12.60;99.90
44487;DHT22;30191;50.908;6.962;2024-03-29T08:34:10;12.70;99.90
44487;DHT22;30191;50.908;6.962;2024-03-29T08:36:40;12.70;99.90
44487;DHT22;30191;50.908;6.962;2024-03-29T08:39:06;12.70;99.90
44487;DHT22;30191;50.908;6.962;2024-03-29T08:41:31;12.80;99.90
44487;DHT22;30191;50.908;6.962;2024-03-29T08:43:57;12.80;99.90
44487;DHT22;30191;50.908;6.962;2024-03-29T08:46:23;12.80;99.90
44487;DHT22;30191;50.908;6.962;2024-03-29T08:48:48;12.90;99.90
44487;DHT22;30191;50.908;6.962;2024-03-29T08:51:14;12.90;99.90
44487;DHT22;30191;50.908;6.962;2024-03-29T08:53:40;12.90;99.90
44487;DHT22;30191;50.908;6.962;2024-03-29T08:56:06;12.90;99.90
44487;DHT22;30191;50.908;6.962;2024-03-29T08:58:32;13.00;99.90
44487;DHT22;30191;50.908;6.962;2024-03-29T09:00:57;13.00;99.90
44487;DHT22;30191;50.908;6.962;2024-03-29T09:03:24;13.00;99.90
44487;DHT22;30191;50.908;6.962;2024-03-29T09:05:50;13.00;99.90
44487;DHT22;30191;50.908;6.962;2024-03-29T09:08:17;13.10;99.90
44487;DHT22;30191;50.908;6.962;2024-03-29T09:10:43;13.10;99.90
44487;DHT22;30191;50.908;6.962;2024-03-29T09:13:09;13.20;99.90
44487;DHT22;30191;50.908;6.962;2024-03-29T09:15:36;13.30;99.90
44487;DHT22;30191;50.908;6.962;2024-03-29T09:18:02;13.30;99.90
44487;DHT22;30191;50.908;6.962;2024-03-29T09:20:38;13.40;99.90
44487;DHT22;30191;50.908;6.962;2024-03-29T09:23:04;13.50;99.90
44487;DHT22;30191;50.908;6.962;2024-03-29T09:25:30;13.50;99.90
44487;DHT22;30191;50.908;6.962;2024-03-29T09:27:57;13.50;99.90
44487;DHT22;30191;50.908;6.962;2024-03-29T09:30:23;13.60;99.90
44487;DHT22;30191;50.908;6.962;2024-03-29T09:32:48;13.60;99.90
44487;DHT22;30191;50.908;6.962;2024-03-29T09:35:17;13.70;99.90
44487;DHT22;30191;50.908;6.962;2024-03-29T09:37:42;13.70;99.90
44487;DHT22;30191;50.908;6.962;2024-03-29T09:40:10;13.70;99.90
44487;DHT22;30191;50.908;6.962;2024-03-29T09:42:38;13.70;99.90
44487;DHT22;30191;50.908;6.962;2024-03-29T09:45:05;13.80;99.90
44487;DHT22;30191;50.908;6.962;2024-03-29T09:47:32;13.80;99.90
44487;DHT22;30191;50.908;6.962;2024-03-29T09:50:07;13.90;99.90
44487;DHT22;30191;50.908;6.962;2024-03-29T09:52:33;13.90;99.90
44487;DHT22;30191;50.908;6.962;2024-03-29T09:55:00;14.00;99.90
44487;DHT22;30191;50.908;6.962;2024-03-29T09:57:26;14.00;99.90
44487;DHT22;30191;50.908;6.962;2024-03-29T09:59:57;14.00;99.90
44487;DHT22;30191;50.908;6.962;2024-03-29T10:02:25;14.00;99.90
44487;DHT22;30191;50.908;6.962;2024-03-29T10:04:53;14.00;99.90
44487;DHT22;30191;50.908;6.962;2024-03-29T10:07:21;14.00;99.90
44487;DHT22;30191;50.908;6.962;2024-03-29T10:09:48;14.00;99.90
44487;DHT22;30191;50.908;6.962;2024-03-29T10:12:16;14.00;99.90
44487;DHT22;30191;50.908;6.962;2024-03-29T10:14:49;14.10;99.90
44487;DHT22;30191;50.908;6.962;2024-03-29T10:17:17;14.20;99.90
44487;DHT22;30191;50.908;6.962;2024-03-29T10:19:44;14.20;99.90
44487;DHT22;30191;50.908;6.962;2024-03-29T10:22:10;14.20;99.90
44487;DHT22;30191;50.908;6.962;2024-03-29T10:24:36;14.20;99.90
44487;DHT22;30191;50.908;6.962;2024-03-29T10:27:03;14.30;99.90
44487;DHT22;30191;50.908;6.962;2024-03-29T10:29:29;14.30;99.90
44487;DHT22;30191;50.908;6.962;2024-03-29T10:31:56;14.30;99.90
44487;DHT22;30191;50.908;6.962;2024-03-29T10:34:22;14.20;99.90
44487;DHT22;30191;50.908;6.962;2024-03-29T10:36:49;14.30;99.90
44487;DHT22;30191;50.908;6.962;2024-03-29T10:39:16;14.30;99.90
44487;DHT22;30191;50.908;6.962;2024-03-29T10:41:46;14.30;99.90
44487;DHT22;30191;50.908;6.962;2024-03-29T10:44:13;14.40;99.90
44487;DHT22;30191;50.908;6.962;2024-03-29T10:46:40;14.40;99.90
44487;DHT22;30191;50.908;6.962;2024-03-29T10:49:08;14.40;99.90
44487;DHT22;30191;50.908;6.962;2024-03-29T10:51:41;14.40;99.90
44487;DHT22;30191;50.908;6.962;2024-03-29T10:54:12;14.50;99.90
44487;DHT22;30191;50.908;6.962;2024-03-29T10:56:40;14.40;99.90
44487;DHT22;30191;50.908;6.962;2024-03-29T10:59:30;14.40;99.90
44487;DHT22;30191;50.908;6.962;2024-03-29T11:02:00;14.40;99.90
44487;DHT22;30191;50.908;6.962;2024-03-29T11:04:33;14.40;99.90
44487;DHT22;30191;50.908;6.962;2024-03-29T11:07:03;14.40;99.90
44487;DHT22;30191;50.908;6.962;2024-03-29T11:09:31;14.40;99.90
44487;DHT22;30191;50.908;6.962;2024-03-29T11:12:01;14.40;99.90
44487;DHT22;30191;50.908;6.962;2024-03-29T11:14:39;14.40;99.90
44487;DHT22;30191;50.908;6.962;2024-03-29T11:17:07;14.50;99.90
44487;DHT22;30191;50.908;6.962;2024-03-29T11:19:35;14.60;99.90
44487;DHT22;30191;50.908;6.962;2024-03-29T11:22:02;14.70;99.90
44487;DHT22;30191;50.908;6.962;2024-03-29T11:24:28;14.80;99.90
44487;DHT22;30191;50.908;6.962;2024-03-29T11:26:54;14.80;99.90
44487;DHT22;30191;50.908;6.962;2024-03-29T11:29:21;14.80;99.90
44487;DHT22;30191;50.908;6.962;2024-03-29T11:31:47;14.80;99.90
44487;DHT22;30191;50.908;6.962;2024-03-29T11:34:19;14.80;99.90
44487;DHT22;30191;50.908;6.962;2024-03-29T11:36:45;14.70;99.90
44487;DHT22;30191;50.908;6.962;2024-03-29T11:39:20;14.70;99.90
44487;DHT22;30191;50.908;6.962;2024-03-29T11:41:47;14.70;99.90
44487;DHT22;30191;50.908;6.962;2024-03-29T11:44:14;14.70;99.90
44487;DHT22;30191;50.908;6.962;2024-03-29T11:46:40;14.70;99.90
44487;DHT22;30191;50.908;6.962;2024-03-29T11:49:06;14.70;99.90
44487;DHT22;30191;50.908;6.962;2024-03-29T11:51:31;14.70;99.90
44487;DHT22;30191;50.908;6.962;2024-03-29T11:53:57;14.70;99.90
44487;DHT22;30191;50.908;6.962;2024-03-29T11:56:23;14.70;99.90
44487;DHT22;30191;50.908;6.962;2024-03-29T11:58:48;14.80;99.90
44487;DHT22;30191;50.908;6.962;2024-03-29T12:01:15;14.80;99.90
44487;DHT22;30191;50.908;6.962;2024-03-29T12:03:42;14.70;99.90
44487;DHT22;30191;50.908;6.962;2024-03-29T12:06:09;14.70;99.90
44487;DHT22;30191;50.908;6.962;2024-03-29T12:08:39;14.60;99.90
44487;DHT22;30191;50.908;6.962;2024-03-29T12:11:05;14.60;99.90
44487;DHT22;30191;50.908;6.962;2024-03-29T12:13:32;14.60;99.90
44487;DHT22;30191;50.908;6.962;2024-03-29T12:16:00;14.60;99.90
44487;DHT22;30191;50.908;6.962;2024-03-29T12:18:26;14.60;99.90
44487;DHT22;30191;50.908;6.962;2024-03-29T12:20:57;14.60;99.90
44487;DHT22;30191;50.908;6.962;2024-03-29T12:23:23;14.60;99.90
44487;DHT22;30191;50.908;6.962;2024-03-29T12:25:50;14.50;99.90
44487;DHT22;30191;50.908;6.962;2024-03-29T12:28:21;14.50;99.90
44487;DHT22;30191;50.908;6.962;2024-03-29T12:30:48;14.40;99.90
44487;DHT22;30191;50.908;6.962;2024-03-29T12:33:14;14.40;99.90
44487;DHT22;30191;50.908;6.962;2024-03-29T12:35:45;14.40;99.90
44487;DHT22;30191;50.908;6.962;2024-03-29T12:38:14;14.40;99.90
44487;DHT22;30191;50.908;6.962;2024-03-29T12:40:42;14.50;99.90
44487;DHT22;30191;50.908;6.962;2024-03-29T12:43:09;14.60;99.90
44487;DHT22;30191;50.908;6.962;2024-03-29T12:45:36;14.80;99.90
44487;DHT22;30191;50.908;6.962;2024-03-29T12:48:02;14.90;99.90
44487;DHT22;30191;50.908;6.962;2024-03-29T12:50:30;14.90;99.90
44487;DHT22;30191;50.908;6.962;2024-03-29T12:52:58;15.00;99.90
44487;DHT22;30191;50.908;6.962;2024-03-29T12:55:25;14.90;99.90
44487;DHT22;30191;50.908;6.962;2024-03-29T12:57:54;14.90;99.90
44487;DHT22;30191;50.908;6.962;2024-03-29T13:00:23;14.80;99.90
44487;DHT22;30191;50.908;6.962;2024-03-29T13:02:49;14.80;99.90
44487;DHT22;30191;50.908;6.962;2024-03-29T13:05:15;14.70;99.90
44487;DHT22;30191;50.908;6.962;2024-03-29T13:07:41;14.70;99.90
44487;DHT22;30191;50.908;6.962;2024-03-29T13:10:07;14.70;99.90
44487;DHT22;30191;50.908;6.962;2024-03-29T13:12:39;14.70;99.90
44487;DHT22;30191;50.908;6.962;2024-03-29T13:15:18;14.70;99.90
44487;DHT22;30191;50.908;6.962;2024-03-29T13:17:45;14.60;99.90
44487;DHT22;30191;50.908;6.962;2024-03-29T13:20:12;14.50;99.90
44487;DHT22;30191;50.908;6.962;2024-03-29T13:22:38;14.50;99.90
44487;DHT22;30191;50.908;6.962;2024-03-29T13:25:07;14.60;99.90
44487;DHT22;30191;50.908;6.962;2024-03-29T13:27:33;14.60;99.90
44487;DHT22;30191;50.908;6.962;2024-03-29T13:29:59;15.00;99.90
44487;DHT22;30191;50.908;6.962;2024-03-29T13:32:24;15.30;99.90
44487;DHT22;30191;50.908;6.962;2024-03-29T13:34:52;15.40;99.90
44487;DHT22;30191;50.908;6.962;2024-03-29T13:37:17;15.40;99.90
44487;DHT22;30191;50.908;6.962;2024-03-29T13:39:43;15.50;99.90
44487;DHT22;30191;50.908;6.962;2024-03-29T13:42:09;15.40;99.90
44487;DHT22;30191;50.908;6.962;2024-03-29T13:44:34;15.30;99.90
44487;DHT22;30191;50.908;6.962;2024-03-29T13:47:00;15.40;99.90
44487;DHT22;30191;50.908;6.962;2024-03-29T13:49:30;15.40;99.90
44487;DHT22;30191;50.908;6.962;2024-03-29T13:51:57;15.50;99.90
44487;DHT22;30191;50.908;6.962;2024-03-29T13:54:23;15.70;99.90
44487;DHT22;30191;50.908;6.962;2024-03-29T13:56:49;16.10;99.90
44487;DHT22;30191;50.908;6.962;2024-03-29T13:59:15;17.00;99.90
44487;DHT22;30191;50.908;6.962;2024-03-29T14:01:40;17.90;99.90
44487;DHT22;30191;50.908;6.962;2024-03-29T14:04:06;18.00;99.90
44487;DHT22;30191;50.908;6.962;2024-03-29T14:06:32;17.70;99.90
44487;DHT22;30191;50.908;6.962;2024-03-29T14:08:58;17.20;99.90
44487;DHT22;30191;50.908;6.962;2024-03-29T14:11:24;16.80;99.90
44487;DHT22;30191;50.908;6.962;2024-03-29T14:13:49;16.60;99.90
44487;DHT22;30191;50.908;6.962;2024-03-29T14:16:21;16.50;99.90
44487;DHT22;30191;50.908;6.962;2024-03-29T14:18:47;16.20;99.90
44487;DHT22;30191;50.908;6.962;2024-03-29T14:21:13;16.20;99.90
44487;DHT22;30191;50.908;6.962;2024-03-29T14:23:38;16.00;99.90
44487;DHT22;30191;50.908;6.962;2024-03-29T14:26:05;16.00;99.90
44487;DHT22;30191;50.908;6.962;2024-03-29T14:28:31;16.10;99.90
44487;DHT22;30191;50.908;6.962;2024-03-29T14:30:56;16.10;99.90
44487;DHT22;30191;50.908;6.962;2024-03-29T14:33:22;16.20;99.90
44487;DHT22;30191;50.908;6.962;2024-03-29T14:35:47;16.20;99.90
44487;DHT22;30191;50.908;6.962;2024-03-29T14:38:15;16.00;99.90
44487;DHT22;30191;50.908;6.962;2024-03-29T14:40:41;15.80;99.90
44487;DHT22;30191;50.908;6.962;2024-03-29T14:43:07;15.80;99.90
44487;DHT22;30191;50.908;6.962;2024-03-29T14:45:33;15.80;99.90
44487;DHT22;30191;50.908;6.962;2024-03-29T14:47:58;15.70;99.90
44487;DHT22;30191;50.908;6.962;2024-03-29T14:50:24;15.70;99.90
44487;DHT22;30191;50.908;6.962;2024-03-29T14:52:50;15.70;99.90
44487;DHT22;30191;50.908;6.962;2024-03-29T14:55:15;15.90;99.90
44487;DHT22;30191;50.908;6.962;2024-03-29T14:57:41;16.10;99.90
44487;DHT22;30191;50.908;6.962;2024-03-29T15:00:07;16.50;99.90
44487;DHT22;30191;50.908;6.962;2024-03-29T15:02:34;16.60;99.90
44487;DHT22;30191;50.908;6.962;2024-03-29T15:05:00;17.00;99.90
44487;DHT22;30191;50.908;6.962;2024-03-29T15:07:26;17.50;99.90
44487;DHT22;30191;50.908;6.962;2024-03-29T15:09:51;18.00;99.90
44487;DHT22;30191;50.908;6.962;2024-03-29T15:12:17;18.40;99.90
44487;DHT22;30191;50.908;6.962;2024-03-29T15:14:43;18.70;99.90
44487;DHT22;30191;50.908;6.962;2024-03-29T15:17:09;18.70;99.90
44487;DHT22;30191;50.908;6.962;2024-03-29T15:19:35;18.20;99.90
44487;DHT22;30191;50.908;6.962;2024-03-29T15:22:00;17.40;99.90
44487;DHT22;30191;50.908;6.962;2024-03-29T15:24:26;17.00;99.90
44487;DHT22;30191;50.908;6.962;2024-03-29T15:26:52;16.60;99.90